Neuquen, Argentina
Current Conditions -  °F | °C
As of 11:00 PM on Thursday 18 Dec 2014 (Local Time) from SAZN Reporting Station
Clear Clear  
Wind Chill: 24°   Ceiling: Unl
Heat Index: 24°   Visibility: 6mi
Dew Point:   Wind: 8mph
Humidity: 29%   Direction: 230°SW
Pressure: 29.68"   Gusts: NA
Location:  38.95°S, 68.06°W
Report Text: SAZN 190200Z 23007KT CAVOK 24/05 Q1005
Loading
Personal Weather Stations






























Interactive Weather Map New forecast layout! Learn more

10-Day Weather Forecast

Advertisements
Track Severe Weather on mobile